sensor_id;sensor_type;location;lat;lon;timestamp;P1;durP1;ratioP1;P2;durP2;ratioP2
31974;SDS011;18500;43.618;1.474;2023-02-26T08:14:14;982.72;;;895.97;;
31974;SDS011;18500;43.618;1.474;2023-02-26T08:16:39;591.38;;;546.50;;
31974;SDS011;18500;43.618;1.474;2023-02-26T08:19:05;358.75;;;337.88;;
31974;SDS011;18500;43.618;1.474;2023-02-26T08:21:31;346.90;;;325.55;;
31974;SDS011;18500;43.618;1.474;2023-02-26T08:23:56;731.33;;;683.13;;
31974;SDS011;18500;43.618;1.474;2023-02-26T08:26:22;463.83;;;436.77;;
31974;SDS011;18500;43.618;1.474;2023-02-26T08:28:48;478.25;;;448.17;;
31974;SDS011;18500;43.618;1.474;2023-02-26T08:31:14;528.42;;;494.48;;
31974;SDS011;18500;43.618;1.474;2023-02-26T08:33:40;823.53;;;761.08;;
31974;SDS011;18500;43.618;1.474;2023-02-26T08:36:06;642.65;;;596.05;;
31974;SDS011;18500;43.618;1.474;2023-02-26T08:38:32;574.35;;;537.20;;
31974;SDS011;18500;43.618;1.474;2023-02-26T08:40:58;794.20;;;735.13;;
31974;SDS011;18500;43.618;1.474;2023-02-26T08:43:24;770.15;;;713.50;;
31974;SDS011;18500;43.618;1.474;2023-02-26T08:45:53;668.83;;;625.10;;
31974;SDS011;18500;43.618;1.474;2023-02-26T08:48:21;735.88;;;686.60;;
31974;SDS011;18500;43.618;1.474;2023-02-26T08:50:47;756.97;;;705.20;;
31974;SDS011;18500;43.618;1.474;2023-02-26T08:53:13;772.35;;;719.17;;
31974;SDS011;18500;43.618;1.474;2023-02-26T08:55:38;674.95;;;629.55;;
31974;SDS011;18500;43.618;1.474;2023-02-26T08:58:04;522.78;;;488.90;;
31974;SDS011;18500;43.618;1.474;2023-02-26T09:00:31;785.67;;;731.25;;
31974;SDS011;18500;43.618;1.474;2023-02-26T09:02:58;680.20;;;632.63;;
31974;SDS011;18500;43.618;1.474;2023-02-26T09:05:24;799.13;;;742.63;;
31974;SDS011;18500;43.618;1.474;2023-02-26T09:07:49;667.50;;;621.70;;
31974;SDS011;18500;43.618;1.474;2023-02-26T09:10:15;526.22;;;493.55;;
31974;SDS011;18500;43.618;1.474;2023-02-26T09:12:41;747.65;;;696.13;;
31974;SDS011;18500;43.618;1.474;2023-02-26T09:15:08;547.83;;;512.70;;
31974;SDS011;18500;43.618;1.474;2023-02-26T09:17:34;457.23;;;428.85;;
31974;SDS011;18500;43.618;1.474;2023-02-26T09:20:01;509.42;;;475.27;;
31974;SDS011;18500;43.618;1.474;2023-02-26T09:22:27;600.55;;;559.60;;
31974;SDS011;18500;43.618;1.474;2023-02-26T09:24:53;551.80;;;514.58;;
31974;SDS011;18500;43.618;1.474;2023-02-26T09:27:18;605.97;;;565.63;;
31974;SDS011;18500;43.618;1.474;2023-02-26T09:29:44;833.20;;;770.92;;
31974;SDS011;18500;43.618;1.474;2023-02-26T09:32:10;658.33;;;610.03;;
31974;SDS011;18500;43.618;1.474;2023-02-26T09:34:36;744.13;;;688.83;;
31974;SDS011;18500;43.618;1.474;2023-02-26T09:37:06;550.78;;;511.80;;
31974;SDS011;18500;43.618;1.474;2023-02-26T09:39:33;880.40;;;812.65;;
31974;SDS011;18500;43.618;1.474;2023-02-26T09:44:51;616.70;;;574.00;;
31974;SDS011;18500;43.618;1.474;2023-02-26T09:47:29;693.80;;;646.45;;
31974;SDS011;18500;43.618;1.474;2023-02-26T09:50:20;565.28;;;529.58;;
31974;SDS011;18500;43.618;1.474;2023-02-26T09:55:26;639.85;;;596.45;;
31974;SDS011;18500;43.618;1.474;2023-02-26T09:58:01;586.90;;;549.17;;
31974;SDS011;18500;43.618;1.474;2023-02-26T10:00:33;647.13;;;604.13;;
31974;SDS011;18500;43.618;1.474;2023-02-26T10:03:26;644.85;;;602.92;;
31974;SDS011;18500;43.618;1.474;2023-02-26T10:11:45;444.77;;;418.45;;
31974;SDS011;18500;43.618;1.474;2023-02-26T10:19:55;550.42;;;516.10;;
31974;SDS011;18500;43.618;1.474;2023-02-26T10:25:15;619.67;;;579.53;;
31974;SDS011;18500;43.618;1.474;2023-02-26T10:30:42;643.72;;;601.40;;
31974;SDS011;18500;43.618;1.474;2023-02-26T10:36:04;825.70;;;766.30;;
31974;SDS011;18500;43.618;1.474;2023-02-26T10:38:35;906.53;;;833.38;;
31974;SDS011;18500;43.618;1.474;2023-02-26T10:41:05;901.38;;;832.35;;
31974;SDS011;18500;43.618;1.474;2023-02-26T10:43:41;817.15;;;755.70;;
31974;SDS011;18500;43.618;1.474;2023-02-26T10:52:10;746.40;;;688.03;;
31974;SDS011;18500;43.618;1.474;2023-02-26T10:57:26;836.95;;;772.20;;
31974;SDS011;18500;43.618;1.474;2023-02-26T10:59:57;842.95;;;778.78;;
31974;SDS011;18500;43.618;1.474;2023-02-26T11:05:05;846.67;;;778.58;;
31974;SDS011;18500;43.618;1.474;2023-02-26T11:07:37;786.63;;;725.40;;
31974;SDS011;18500;43.618;1.474;2023-02-26T11:10:05;927.80;;;849.40;;
31974;SDS011;18500;43.618;1.474;2023-02-26T11:12:38;776.38;;;717.13;;
31974;SDS011;18500;43.618;1.474;2023-02-26T11:15:05;785.45;;;724.42;;
31974;SDS011;18500;43.618;1.474;2023-02-26T11:17:36;890.13;;;813.97;;
31974;SDS011;18500;43.618;1.474;2023-02-26T11:20:03;672.55;;;623.30;;
31974;SDS011;18500;43.618;1.474;2023-02-26T11:22:39;871.53;;;794.45;;
31974;SDS011;18500;43.618;1.474;2023-02-26T11:25:19;700.78;;;647.45;;
31974;SDS011;18500;43.618;1.474;2023-02-26T11:27:49;620.15;;;576.55;;
31974;SDS011;18500;43.618;1.474;2023-02-26T11:30:21;747.03;;;689.25;;
31974;SDS011;18500;43.618;1.474;2023-02-26T11:32:51;727.30;;;672.70;;
31974;SDS011;18500;43.618;1.474;2023-02-26T11:35:22;802.45;;;742.13;;
31974;SDS011;18500;43.618;1.474;2023-02-26T11:37:57;645.10;;;598.25;;
31974;SDS011;18500;43.618;1.474;2023-02-26T11:40:47;573.95;;;532.90;;
31974;SDS011;18500;43.618;1.474;2023-02-26T11:43:14;495.05;;;461.85;;
31974;SDS011;18500;43.618;1.474;2023-02-26T11:45:47;525.75;;;489.75;;
31974;SDS011;18500;43.618;1.474;2023-02-26T11:48:23;696.83;;;645.83;;
31974;SDS011;18500;43.618;1.474;2023-02-26T11:50:54;420.45;;;394.08;;
31974;SDS011;18500;43.618;1.474;2023-02-26T11:53:40;376.05;;;353.40;;
31974;SDS011;18500;43.618;1.474;2023-02-26T11:56:12;328.58;;;309.17;;
31974;SDS011;18500;43.618;1.474;2023-02-26T11:58:44;401.50;;;375.85;;
31974;SDS011;18500;43.618;1.474;2023-02-26T12:01:11;425.77;;;399.83;;
31974;SDS011;18500;43.618;1.474;2023-02-26T12:03:39;614.83;;;572.42;;
31974;SDS011;18500;43.618;1.474;2023-02-26T12:06:17;369.55;;;348.17;;
31974;SDS011;18500;43.618;1.474;2023-02-26T12:08:45;413.02;;;387.67;;
31974;SDS011;18500;43.618;1.474;2023-02-26T12:13:51;518.47;;;485.10;;
31974;SDS011;18500;43.618;1.474;2023-02-26T12:33:01;374.15;;;351.77;;
31974;SDS011;18500;43.618;1.474;2023-02-26T12:38:14;293.95;;;277.13;;
31974;SDS011;18500;43.618;1.474;2023-02-26T12:59:58;298.92;;;281.92;;
31974;SDS011;18500;43.618;1.474;2023-02-26T13:14:03;183.95;;;174.65;;
31974;SDS011;18500;43.618;1.474;2023-02-26T13:19:31;177.57;;;168.65;;
31974;SDS011;18500;43.618;1.474;2023-02-26T13:25:21;167.60;;;156.98;;
31974;SDS011;18500;43.618;1.474;2023-02-26T13:27:57;128.63;;;121.90;;
31974;SDS011;18500;43.618;1.474;2023-02-26T13:30:30;89.55;;;84.38;;
31974;SDS011;18500;43.618;1.474;2023-02-26T13:33:06;71.97;;;68.07;;
31974;SDS011;18500;43.618;1.474;2023-02-26T13:35:41;143.65;;;136.20;;
31974;SDS011;18500;43.618;1.474;2023-02-26T13:41:14;128.63;;;122.20;;
31974;SDS011;18500;43.618;1.474;2023-02-26T13:43:49;124.18;;;117.50;;
31974;SDS011;18500;43.618;1.474;2023-02-26T13:59:29;115.95;;;110.25;;
31974;SDS011;18500;43.618;1.474;2023-02-26T14:04:51;117.38;;;110.68;;
31974;SDS011;18500;43.618;1.474;2023-02-26T14:10:14;148.98;;;140.80;;
31974;SDS011;18500;43.618;1.474;2023-02-26T14:13:02;69.47;;;65.93;;
31974;SDS011;18500;43.618;1.474;2023-02-26T14:15:39;85.78;;;81.25;;
31974;SDS011;18500;43.618;1.474;2023-02-26T14:20:50;51.38;;;48.65;;
31974;SDS011;18500;43.618;1.474;2023-02-26T14:23:31;63.75;;;60.38;;
31974;SDS011;18500;43.618;1.474;2023-02-26T14:26:03;71.72;;;68.03;;
31974;SDS011;18500;43.618;1.474;2023-02-26T14:28:42;190.15;;;179.35;;
31974;SDS011;18500;43.618;1.474;2023-02-26T14:32:15;87.30;;;82.72;;
31974;SDS011;18500;43.618;1.474;2023-02-26T14:34:51;69.43;;;65.70;;
31974;SDS011;18500;43.618;1.474;2023-02-26T14:37:21;129.25;;;122.57;;
31974;SDS011;18500;43.618;1.474;2023-02-26T14:39:53;109.30;;;103.90;;
31974;SDS011;18500;43.618;1.474;2023-02-26T14:45:09;172.80;;;163.40;;
31974;SDS011;18500;43.618;1.474;2023-02-26T14:47:50;112.60;;;106.97;;
31974;SDS011;18500;43.618;1.474;2023-02-26T14:50:17;185.27;;;173.93;;
31974;SDS011;18500;43.618;1.474;2023-02-26T14:56:16;194.50;;;182.88;;
31974;SDS011;18500;43.618;1.474;2023-02-26T14:59:04;148.90;;;140.67;;
31974;SDS011;18500;43.618;1.474;2023-02-26T15:04:07;170.70;;;160.60;;
31974;SDS011;18500;43.618;1.474;2023-02-26T15:07:02;153.23;;;144.30;;
31974;SDS011;18500;43.618;1.474;2023-02-26T15:21:35;176.88;;;167.73;;
31974;SDS011;18500;43.618;1.474;2023-02-26T15:24:06;153.10;;;145.20;;
31974;SDS011;18500;43.618;1.474;2023-02-26T15:26:37;161.35;;;153.00;;
31974;SDS011;18500;43.618;1.474;2023-02-26T15:29:09;140.05;;;132.90;;
31974;SDS011;18500;43.618;1.474;2023-02-26T15:31:41;181.93;;;171.68;;
31974;SDS011;18500;43.618;1.474;2023-02-26T15:34:12;136.43;;;129.57;;
31974;SDS011;18500;43.618;1.474;2023-02-26T15:36:44;146.03;;;138.50;;
31974;SDS011;18500;43.618;1.474;2023-02-26T15:39:17;125.03;;;118.80;;
31974;SDS011;18500;43.618;1.474;2023-02-26T15:41:45;171.45;;;161.82;;
31974;SDS011;18500;43.618;1.474;2023-02-26T15:44:15;173.85;;;164.43;;
31974;SDS011;18500;43.618;1.474;2023-02-26T15:46:44;257.42;;;239.73;;
31974;SDS011;18500;43.618;1.474;2023-02-26T15:49:16;168.00;;;159.25;;
31974;SDS011;18500;43.618;1.474;2023-02-26T15:52:03;169.77;;;159.20;;
31974;SDS011;18500;43.618;1.474;2023-02-26T15:54:51;214.90;;;203.48;;
31974;SDS011;18500;43.618;1.474;2023-02-26T15:57:19;176.48;;;167.60;;
31974;SDS011;18500;43.618;1.474;2023-02-26T15:59:49;210.40;;;199.30;;
31974;SDS011;18500;43.618;1.474;2023-02-26T16:02:21;232.98;;;220.50;;
31974;SDS011;18500;43.618;1.474;2023-02-26T16:04:51;184.60;;;174.63;;
31974;SDS011;18500;43.618;1.474;2023-02-26T16:07:17;190.70;;;178.95;;
31974;SDS011;18500;43.618;1.474;2023-02-26T16:09:45;258.85;;;243.15;;
31974;SDS011;18500;43.618;1.474;2023-02-26T16:15:01;128.07;;;121.38;;
31974;SDS011;18500;43.618;1.474;2023-02-26T16:17:30;180.32;;;171.25;;
31974;SDS011;18500;43.618;1.474;2023-02-26T16:20:01;161.20;;;153.13;;
31974;SDS011;18500;43.618;1.474;2023-02-26T16:25:00;260.50;;;246.32;;
31974;SDS011;18500;43.618;1.474;2023-02-26T16:27:42;260.20;;;243.95;;
31974;SDS011;18500;43.618;1.474;2023-02-26T16:30:16;197.82;;;185.07;;
31974;SDS011;18500;43.618;1.474;2023-02-26T16:32:46;249.45;;;235.73;;
31974;SDS011;18500;43.618;1.474;2023-02-26T16:35:18;206.25;;;194.35;;
31974;SDS011;18500;43.618;1.474;2023-02-26T16:37:47;219.15;;;206.63;;
31974;SDS011;18500;43.618;1.474;2023-02-26T16:40:22;211.10;;;198.85;;
31974;SDS011;18500;43.618;1.474;2023-02-26T16:45:21;143.73;;;136.00;;
31974;SDS011;18500;43.618;1.474;2023-02-26T16:47:58;133.18;;;125.78;;
31974;SDS011;18500;43.618;1.474;2023-02-26T16:50:26;91.32;;;86.53;;
31974;SDS011;18500;43.618;1.474;2023-02-26T16:53:16;196.55;;;185.85;;
31974;SDS011;18500;43.618;1.474;2023-02-26T16:55:44;223.23;;;210.48;;
31974;SDS011;18500;43.618;1.474;2023-02-26T16:58:15;154.95;;;146.65;;
31974;SDS011;18500;43.618;1.474;2023-02-26T17:00:45;195.50;;;185.02;;
31974;SDS011;18500;43.618;1.474;2023-02-26T17:03:17;104.65;;;99.15;;
31974;SDS011;18500;43.618;1.474;2023-02-26T17:05:49;166.32;;;157.10;;
31974;SDS011;18500;43.618;1.474;2023-02-26T17:08:31;160.25;;;151.85;;
31974;SDS011;18500;43.618;1.474;2023-02-26T17:11:51;155.07;;;146.18;;
31974;SDS011;18500;43.618;1.474;2023-02-26T17:16:47;134.45;;;127.25;;
31974;SDS011;18500;43.618;1.474;2023-02-26T17:19:14;187.40;;;176.52;;
31974;SDS011;18500;43.618;1.474;2023-02-26T17:21:58;138.70;;;131.25;;
31974;SDS011;18500;43.618;1.474;2023-02-26T17:24:45;236.18;;;221.43;;
31974;SDS011;18500;43.618;1.474;2023-02-26T17:30:07;186.80;;;176.50;;
31974;SDS011;18500;43.618;1.474;2023-02-26T17:32:34;139.90;;;131.73;;
31974;SDS011;18500;43.618;1.474;2023-02-26T17:35:00;146.55;;;139.00;;
31974;SDS011;18500;43.618;1.474;2023-02-26T17:37:29;111.13;;;105.43;;
31974;SDS011;18500;43.618;1.474;2023-02-26T17:39:59;78.47;;;74.20;;
31974;SDS011;18500;43.618;1.474;2023-02-26T17:42:26;238.73;;;222.73;;
31974;SDS011;18500;43.618;1.474;2023-02-26T17:44:52;69.40;;;65.63;;
31974;SDS011;18500;43.618;1.474;2023-02-26T17:47:21;65.10;;;61.75;;
31974;SDS011;18500;43.618;1.474;2023-02-26T17:49:48;60.88;;;57.42;;
31974;SDS011;18500;43.618;1.474;2023-02-26T17:52:14;51.58;;;48.85;;
31974;SDS011;18500;43.618;1.474;2023-02-26T17:54:40;66.53;;;62.75;;
31974;SDS011;18500;43.618;1.474;2023-02-26T17:57:06;78.32;;;74.28;;
31974;SDS011;18500;43.618;1.474;2023-02-26T18:02:11;106.85;;;101.05;;
31974;SDS011;18500;43.618;1.474;2023-02-26T18:04:44;73.47;;;69.75;;
31974;SDS011;18500;43.618;1.474;2023-02-26T18:07:12;62.28;;;58.97;;
31974;SDS011;18500;43.618;1.474;2023-02-26T18:09:40;55.35;;;52.42;;
31974;SDS011;18500;43.618;1.474;2023-02-26T18:12:14;57.05;;;54.08;;
31974;SDS011;18500;43.618;1.474;2023-02-26T18:14:44;49.58;;;46.72;;
31974;SDS011;18500;43.618;1.474;2023-02-26T18:17:14;50.95;;;48.13;;
31974;SDS011;18500;43.618;1.474;2023-02-26T18:19:43;57.85;;;54.30;;
31974;SDS011;18500;43.618;1.474;2023-02-26T18:22:13;61.78;;;58.40;;
31974;SDS011;18500;43.618;1.474;2023-02-26T18:24:40;79.40;;;75.18;;
31974;SDS011;18500;43.618;1.474;2023-02-26T18:27:11;58.80;;;55.58;;
31974;SDS011;18500;43.618;1.474;2023-02-26T18:29:38;62.70;;;59.20;;
31974;SDS011;18500;43.618;1.474;2023-02-26T18:32:04;53.63;;;50.42;;
31974;SDS011;18500;43.618;1.474;2023-02-26T18:34:30;84.68;;;80.10;;
31974;SDS011;18500;43.618;1.474;2023-02-26T18:36:56;63.53;;;60.08;;
31974;SDS011;18500;43.618;1.474;2023-02-26T18:39:21;52.03;;;49.17;;
31974;SDS011;18500;43.618;1.474;2023-02-26T18:41:51;76.05;;;71.93;;
31974;SDS011;18500;43.618;1.474;2023-02-26T18:44:17;73.88;;;69.82;;
31974;SDS011;18500;43.618;1.474;2023-02-26T18:46:43;62.33;;;59.10;;
31974;SDS011;18500;43.618;1.474;2023-02-26T18:49:15;67.32;;;63.65;;
31974;SDS011;18500;43.618;1.474;2023-02-26T18:51:44;100.75;;;95.53;;
31974;SDS011;18500;43.618;1.474;2023-02-26T18:54:09;77.85;;;73.90;;
31974;SDS011;18500;43.618;1.474;2023-02-26T18:56:35;61.83;;;58.60;;
31974;SDS011;18500;43.618;1.474;2023-02-26T18:59:01;65.30;;;61.35;;
31974;SDS011;18500;43.618;1.474;2023-02-26T19:01:27;68.35;;;64.65;;
31974;SDS011;18500;43.618;1.474;2023-02-26T19:03:53;53.22;;;49.72;;
31974;SDS011;18500;43.618;1.474;2023-02-26T19:06:20;95.95;;;90.85;;
31974;SDS011;18500;43.618;1.474;2023-02-26T19:08:45;58.80;;;55.25;;
31974;SDS011;18500;43.618;1.474;2023-02-26T19:11:11;57.22;;;53.78;;
31974;SDS011;18500;43.618;1.474;2023-02-26T19:13:37;63.80;;;59.95;;
31974;SDS011;18500;43.618;1.474;2023-02-26T19:16:03;61.97;;;58.40;;
31974;SDS011;18500;43.618;1.474;2023-02-26T19:18:29;79.43;;;75.10;;
31974;SDS011;18500;43.618;1.474;2023-02-26T19:20:54;67.20;;;63.70;;
31974;SDS011;18500;43.618;1.474;2023-02-26T19:23:20;92.68;;;88.00;;
31974;SDS011;18500;43.618;1.474;2023-02-26T19:25:47;77.72;;;73.70;;
31974;SDS011;18500;43.618;1.474;2023-02-26T19:28:15;76.72;;;72.60;;
31974;SDS011;18500;43.618;1.474;2023-02-26T19:30:41;80.20;;;75.93;;
31974;SDS011;18500;43.618;1.474;2023-02-26T19:33:07;121.22;;;115.03;;
31974;SDS011;18500;43.618;1.474;2023-02-26T19:35:33;92.50;;;87.55;;
31974;SDS011;18500;43.618;1.474;2023-02-26T19:37:59;88.20;;;83.53;;
31974;SDS011;18500;43.618;1.474;2023-02-26T19:40:25;80.20;;;75.60;;
31974;SDS011;18500;43.618;1.474;2023-02-26T19:42:52;69.03;;;65.15;;
31974;SDS011;18500;43.618;1.474;2023-02-26T19:45:18;151.35;;;143.60;;
31974;SDS011;18500;43.618;1.474;2023-02-26T19:47:44;103.43;;;97.38;;
31974;SDS011;18500;43.618;1.474;2023-02-26T19:50:10;85.38;;;80.65;;
31974;SDS011;18500;43.618;1.474;2023-02-26T19:52:38;111.95;;;105.78;;
31974;SDS011;18500;43.618;1.474;2023-02-26T19:55:04;108.13;;;102.35;;
31974;SDS011;18500;43.618;1.474;2023-02-26T19:57:31;90.70;;;85.95;;
31974;SDS011;18500;43.618;1.474;2023-02-26T19:59:57;125.15;;;118.85;;
31974;SDS011;18500;43.618;1.474;2023-02-26T20:02:23;74.00;;;70.03;;
31974;SDS011;18500;43.618;1.474;2023-02-26T20:04:49;154.95;;;146.32;;
31974;SDS011;18500;43.618;1.474;2023-02-26T20:07:15;117.47;;;111.28;;
31974;SDS011;18500;43.618;1.474;2023-02-26T20:09:41;101.38;;;95.68;;
31974;SDS011;18500;43.618;1.474;2023-02-26T20:12:07;94.97;;;89.97;;
31974;SDS011;18500;43.618;1.474;2023-02-26T20:14:33;127.25;;;120.45;;
31974;SDS011;18500;43.618;1.474;2023-02-26T20:16:59;116.07;;;109.85;;
31974;SDS011;18500;43.618;1.474;2023-02-26T20:19:24;138.82;;;131.50;;
31974;SDS011;18500;43.618;1.474;2023-02-26T20:21:50;118.30;;;112.07;;
31974;SDS011;18500;43.618;1.474;2023-02-26T20:24:16;127.15;;;120.55;;
31974;SDS011;18500;43.618;1.474;2023-02-26T20:26:44;132.20;;;125.38;;
31974;SDS011;18500;43.618;1.474;2023-02-26T20:29:10;155.20;;;147.07;;
31974;SDS011;18500;43.618;1.474;2023-02-26T20:31:36;110.53;;;104.45;;
31974;SDS011;18500;43.618;1.474;2023-02-26T20:34:01;143.50;;;135.93;;
31974;SDS011;18500;43.618;1.474;2023-02-26T20:36:27;148.80;;;140.95;;
31974;SDS011;18500;43.618;1.474;2023-02-26T20:38:53;173.43;;;163.70;;
31974;SDS011;18500;43.618;1.474;2023-02-26T20:41:18;159.73;;;151.13;;
31974;SDS011;18500;43.618;1.474;2023-02-26T20:43:44;308.90;;;291.00;;
31974;SDS011;18500;43.618;1.474;2023-02-26T20:46:10;228.45;;;215.90;;
31974;SDS011;18500;43.618;1.474;2023-02-26T20:48:36;269.10;;;254.10;;
31974;SDS011;18500;43.618;1.474;2023-02-26T20:51:05;259.38;;;245.57;;
31974;SDS011;18500;43.618;1.474;2023-02-26T20:53:32;238.80;;;225.82;;
31974;SDS011;18500;43.618;1.474;2023-02-26T20:55:58;253.15;;;239.05;;
31974;SDS011;18500;43.618;1.474;2023-02-26T20:58:24;260.10;;;246.02;;
31974;SDS011;18500;43.618;1.474;2023-02-26T21:00:50;227.82;;;215.63;;
31974;SDS011;18500;43.618;1.474;2023-02-26T21:03:19;245.63;;;232.20;;
31974;SDS011;18500;43.618;1.474;2023-02-26T21:05:44;245.40;;;231.80;;
31974;SDS011;18500;43.618;1.474;2023-02-26T21:08:11;236.88;;;223.75;;
31974;SDS011;18500;43.618;1.474;2023-02-26T21:10:37;297.70;;;281.50;;
31974;SDS011;18500;43.618;1.474;2023-02-26T21:13:05;258.15;;;244.07;;
31974;SDS011;18500;43.618;1.474;2023-02-26T21:15:31;286.02;;;270.55;;
31974;SDS011;18500;43.618;1.474;2023-02-26T21:17:57;297.33;;;280.83;;
31974;SDS011;18500;43.618;1.474;2023-02-26T21:20:23;299.95;;;283.58;;
31974;SDS011;18500;43.618;1.474;2023-02-26T21:22:49;283.08;;;267.27;;
31974;SDS011;18500;43.618;1.474;2023-02-26T21:25:15;277.38;;;262.25;;
31974;SDS011;18500;43.618;1.474;2023-02-26T21:27:40;271.83;;;257.17;;
31974;SDS011;18500;43.618;1.474;2023-02-26T21:30:08;260.80;;;245.98;;
31974;SDS011;18500;43.618;1.474;2023-02-26T21:32:35;286.15;;;270.50;;
31974;SDS011;18500;43.618;1.474;2023-02-26T21:35:00;246.50;;;233.05;;
31974;SDS011;18500;43.618;1.474;2023-02-26T21:37:26;273.27;;;258.48;;
31974;SDS011;18500;43.618;1.474;2023-02-26T21:39:53;206.50;;;195.32;;
31974;SDS011;18500;43.618;1.474;2023-02-26T21:42:18;334.60;;;315.85;;
31974;SDS011;18500;43.618;1.474;2023-02-26T21:44:44;268.70;;;254.80;;
31974;SDS011;18500;43.618;1.474;2023-02-26T21:47:10;347.27;;;327.85;;
31974;SDS011;18500;43.618;1.474;2023-02-26T21:49:36;327.20;;;308.70;;
31974;SDS011;18500;43.618;1.474;2023-02-26T21:52:04;314.67;;;297.55;;
31974;SDS011;18500;43.618;1.474;2023-02-26T21:54:30;267.90;;;253.63;;
31974;SDS011;18500;43.618;1.474;2023-02-26T21:56:56;274.63;;;259.80;;
31974;SDS011;18500;43.618;1.474;2023-02-26T21:59:23;231.95;;;220.20;;
31974;SDS011;18500;43.618;1.474;2023-02-26T22:01:49;229.98;;;217.95;;
31974;SDS011;18500;43.618;1.474;2023-02-26T22:04:16;266.85;;;252.52;;
31974;SDS011;18500;43.618;1.474;2023-02-26T22:06:43;247.23;;;233.82;;
31974;SDS011;18500;43.618;1.474;2023-02-26T22:09:09;218.40;;;207.13;;
31974;SDS011;18500;43.618;1.474;2023-02-26T22:11:34;191.15;;;181.55;;
31974;SDS011;18500;43.618;1.474;2023-02-26T22:14:00;201.27;;;191.05;;
